DRZT weather

Tanout Airport
Tanout, Zinder Region, Niger

Public forecast

Using degrees Celsius for public forecast. Weather courtesy of forecast.io.

METAR (pilot weather report)

Report is more than 6 hours old.

Closest report is Zinder Airport, 71.7 nm (132.8 km) S. Retrieved 2019/04/23 13:00 UTC (1 day ago):

DRZR 231300Z 12006KT 6000 NSC 40/10 Q1008

TAF (pilot weather forecast)

Closest forecast is Zinder Airport, 71.7 nm (132.8 km) S. Retrieved 2019/04/24 18:39 UTC (3 hours ago):

TAF DRZR 241700Z 2418/2518 04010KT 5000 DU NSC TEMPO 2504/2508 2000 TEMPO 2508/2514 10020KT 1000 BLDU